createdAt,value
2019-03-18T00:03:29.257Z,21.39
2019-03-18T00:08:33.449Z,21.32
2019-03-18T00:13:37.788Z,21.29
2019-03-18T00:18:42.125Z,21.26
2019-03-18T00:23:46.310Z,21.31
2019-03-18T00:28:50.498Z,21.20
2019-03-18T00:33:54.723Z,21.20
2019-03-18T00:38:59.110Z,21.24
2019-03-18T00:44:03.406Z,21.12
2019-03-18T00:49:07.615Z,21.12
2019-03-18T00:54:11.887Z,21.16
2019-03-18T00:59:16.144Z,21.14
2019-03-18T01:04:20.254Z,21.08
2019-03-18T01:09:24.303Z,21.07
2019-03-18T01:14:28.665Z,21.05
2019-03-18T01:19:32.703Z,20.96
2019-03-18T01:24:37.075Z,21.02
2019-03-18T01:29:41.169Z,20.91
2019-03-18T01:34:45.433Z,20.89
2019-03-18T01:39:49.551Z,20.89
2019-03-18T01:44:53.695Z,20.95
2019-03-18T01:49:57.707Z,20.93
2019-03-18T01:55:01.950Z,20.79
2019-03-18T02:00:06.939Z,20.79
2019-03-18T02:05:11.562Z,20.81
2019-03-18T02:10:15.803Z,20.80
2019-03-18T02:15:19.868Z,20.80
2019-03-18T02:20:24.190Z,20.75
2019-03-18T02:25:28.420Z,20.74
2019-03-18T02:30:32.643Z,20.74
2019-03-18T02:35:36.937Z,20.64
2019-03-18T02:40:41.140Z,20.69
2019-03-18T02:45:45.481Z,20.68
2019-03-18T02:50:49.886Z,20.58
2019-03-18T02:55:54.209Z,20.64
2019-03-18T03:00:58.310Z,20.62
2019-03-18T03:06:02.465Z,20.61
2019-03-18T03:11:06.703Z,20.51
2019-03-18T03:16:25.584Z,20.57
2019-03-18T03:21:16.883Z,20.54
2019-03-18T03:26:21.231Z,20.54
2019-03-18T03:31:25.592Z,20.53
2019-03-18T03:36:29.853Z,20.51
2019-03-18T03:41:34.082Z,20.41
2019-03-18T03:46:43.576Z,20.40
2019-03-18T03:51:44.203Z,20.39
2019-03-18T03:56:48.561Z,20.46
2019-03-18T04:01:53.414Z,20.34
2019-03-18T04:06:57.570Z,20.34
2019-03-18T04:12:01.888Z,20.43
2019-03-18T04:17:06.089Z,20.31
2019-03-18T04:22:10.322Z,20.37
2019-03-18T04:27:14.511Z,20.37
2019-03-18T04:32:18.853Z,20.34
2019-03-18T04:48:56.164Z,20.31
2019-03-18T05:10:20.453Z,20.31
2019-03-18T05:15:25.696Z,20.29
2019-03-18T05:20:30.722Z,20.29
2019-03-18T05:25:37.063Z,20.25
2019-03-18T05:30:41.935Z,20.23
2019-03-18T05:35:46.769Z,20.23
2019-03-18T05:40:51.471Z,20.24
2019-03-18T05:45:56.603Z,20.22
2019-03-18T05:51:01.942Z,20.13
2019-03-18T05:56:09.838Z,20.21
2019-03-18T06:01:15.753Z,20.19
2019-03-18T06:06:21.603Z,20.19
2019-03-18T06:11:32.634Z,20.18
2019-03-18T06:16:38.261Z,20.18
2019-03-18T06:21:43.030Z,20.10
2019-03-18T06:26:47.793Z,20.17
2019-03-18T06:31:53.133Z,20.16
2019-03-18T06:36:59.201Z,20.17
2019-03-18T06:42:04.346Z,20.17
2019-03-18T06:47:10.870Z,20.16
2019-03-18T06:52:17.034Z,20.16
2019-03-18T07:03:23.707Z,20.16
2019-03-18T07:08:31.534Z,20.15
2019-03-18T07:13:41.948Z,20.14
2019-03-18T07:18:46.918Z,20.15
2019-03-18T07:23:58.757Z,20.16
2019-03-18T07:29:03.898Z,20.16
2019-03-18T07:34:11.819Z,20.08
2019-03-18T07:39:16.256Z,20.05
2019-03-18T07:44:20.347Z,20.05
2019-03-18T07:49:24.388Z,15.19
2019-03-18T07:54:33.118Z,11.59
2019-03-18T07:59:34.699Z,10.09
2019-03-18T08:04:38.750Z,10.09
2019-03-18T08:09:42.820Z,9.13
2019-03-18T08:14:46.898Z,9.13
2019-03-18T08:19:50.905Z,14.25
2019-03-18T08:24:54.983Z,16.35
2019-03-18T08:29:59.052Z,17.41
2019-03-18T08:35:03.216Z,18.27
2019-03-18T08:40:07.886Z,18.68
2019-03-18T08:45:12.185Z,19.05
2019-03-18T08:50:16.269Z,19.32
2019-03-18T08:55:21.007Z,19.58
2019-03-18T09:00:25.264Z,19.58
2019-03-18T09:05:29.332Z,19.74
2019-03-18T09:10:33.370Z,19.75
2019-03-18T09:15:37.482Z,19.71
2019-03-18T09:20:41.531Z,19.66
2019-03-18T09:25:45.561Z,19.62
2019-03-18T09:30:49.701Z,19.65
2019-03-18T09:35:53.708Z,19.65
2019-03-18T09:40:57.731Z,19.80
2019-03-18T09:46:02.259Z,19.85
2019-03-18T09:51:06.275Z,19.85
2019-03-18T09:56:10.275Z,19.84
2019-03-18T10:01:14.365Z,19.84
2019-03-18T10:06:18.370Z,19.81
2019-03-18T10:11:22.395Z,19.77
2019-03-18T10:16:26.515Z,19.69
2019-03-18T10:21:30.541Z,19.75
2019-03-18T10:26:34.569Z,19.74
2019-03-18T10:31:38.572Z,19.63
2019-03-18T10:36:42.574Z,19.71
2019-03-18T10:41:46.576Z,19.62
2019-03-18T10:46:50.564Z,19.68
2019-03-18T10:51:54.555Z,19.68
2019-03-18T10:56:58.551Z,19.67
2019-03-18T11:02:02.608Z,20.04
2019-03-18T11:07:06.599Z,20.64
2019-03-18T11:12:10.637Z,20.73
2019-03-18T11:17:14.887Z,20.76
2019-03-18T11:22:18.960Z,20.79
2019-03-18T11:27:23.082Z,20.69
2019-03-18T11:32:27.238Z,20.59
2019-03-18T11:37:31.342Z,20.59
2019-03-18T11:42:35.359Z,20.49
2019-03-18T11:47:39.432Z,20.48
2019-03-18T11:52:43.505Z,20.43
2019-03-18T11:57:47.618Z,20.32
2019-03-18T12:02:51.751Z,20.46
2019-03-18T12:07:55.923Z,20.53
2019-03-18T12:12:59.925Z,20.51
2019-03-18T12:18:03.995Z,20.51
2019-03-18T12:23:07.982Z,20.53
2019-03-18T12:28:12.001Z,20.51
2019-03-18T12:33:16.097Z,20.45
2019-03-18T12:38:20.200Z,20.49
2019-03-18T12:43:24.313Z,20.65
2019-03-18T12:48:28.401Z,20.79
2019-03-18T12:53:32.499Z,20.81
2019-03-18T12:58:36.664Z,20.76
2019-03-18T13:03:40.985Z,20.92
2019-03-18T13:08:45.491Z,20.92
2019-03-18T13:13:49.506Z,21.07
2019-03-18T13:18:53.517Z,21.07
2019-03-18T13:23:57.641Z,20.99
2019-03-18T13:29:01.665Z,20.99
2019-03-18T13:34:05.753Z,21.03
2019-03-18T13:39:09.986Z,21.04
2019-03-18T13:44:14.002Z,20.94
2019-03-18T13:49:18.045Z,20.94
2019-03-18T13:54:22.085Z,20.91
2019-03-18T13:59:26.089Z,20.79
2019-03-18T14:04:30.115Z,20.92
2019-03-18T14:09:34.110Z,20.88
2019-03-18T14:14:38.118Z,20.85
2019-03-18T14:19:42.161Z,20.90
2019-03-18T14:24:46.237Z,21.08
2019-03-18T14:29:50.245Z,21.00
2019-03-18T14:34:54.263Z,21.00
2019-03-18T14:39:58.310Z,21.00
2019-03-18T14:45:02.434Z,20.94
2019-03-18T14:50:06.981Z,20.79
2019-03-18T14:55:11.389Z,20.82
2019-03-18T15:00:17.775Z,20.73
2019-03-18T15:05:21.869Z,20.62
2019-03-18T15:10:25.912Z,20.62
2019-03-18T15:15:29.995Z,20.46
2019-03-18T15:20:34.199Z,20.51
2019-03-18T15:25:38.275Z,20.51
2019-03-18T15:30:42.480Z,20.80
2019-03-18T15:35:47.395Z,20.90
2019-03-18T15:40:51.532Z,20.93
2019-03-18T15:45:55.581Z,20.95
2019-03-18T15:50:59.604Z,20.98
2019-03-18T15:56:03.836Z,21.02
2019-03-18T16:01:07.863Z,21.02
2019-03-18T16:06:11.902Z,21.09
2019-03-18T16:11:15.949Z,21.14
2019-03-18T16:16:19.996Z,21.16
2019-03-18T16:21:24.010Z,21.16
2019-03-18T16:26:28.031Z,21.14
2019-03-18T16:31:32.137Z,21.22
2019-03-18T16:36:36.257Z,21.22
2019-03-18T16:41:43.504Z,21.25
2019-03-18T16:46:47.651Z,21.31
2019-03-18T17:18:17.989Z,21.44
2019-03-18T17:28:53.523Z,21.97
2019-03-18T17:33:57.559Z,21.97
2019-03-18T17:39:01.601Z,22.36
2019-03-18T17:44:05.920Z,22.49
2019-03-18T17:49:10.156Z,22.53
2019-03-18T17:54:14.169Z,22.53
2019-03-18T17:59:18.191Z,22.46
2019-03-18T18:04:22.189Z,22.41
2019-03-18T18:09:26.196Z,22.42
2019-03-18T18:14:30.236Z,22.44
2019-03-18T18:19:34.346Z,22.48
2019-03-18T18:24:38.556Z,22.48
2019-03-18T18:29:42.637Z,22.46
2019-03-18T18:34:46.825Z,22.53
2019-03-18T18:39:50.898Z,22.55
2019-03-18T18:44:54.897Z,22.68
2019-03-18T18:49:59.166Z,22.65
2019-03-18T18:55:03.524Z,22.71
2019-03-18T19:00:09.333Z,22.71
2019-03-18T19:05:13.666Z,22.73
2019-03-18T19:10:17.860Z,22.66
2019-03-18T19:15:22.307Z,22.65
2019-03-18T19:20:26.574Z,22.57
2019-03-18T19:25:30.782Z,22.60
2019-03-18T19:30:34.880Z,22.60
2019-03-18T19:35:38.872Z,22.85
2019-03-18T19:40:43.983Z,22.80
2019-03-18T19:45:47.989Z,22.80
2019-03-18T19:50:52.056Z,22.71
2019-03-18T19:55:56.114Z,22.73
2019-03-18T20:01:00.175Z,22.68
2019-03-18T20:06:04.625Z,22.60
2019-03-18T20:11:08.772Z,22.55
2019-03-18T20:16:12.855Z,22.55
2019-03-18T20:21:16.904Z,22.46
2019-03-18T20:26:21.027Z,22.44
2019-03-18T20:31:26.207Z,22.36
2019-03-18T20:36:30.391Z,22.36
2019-03-18T20:41:34.422Z,22.32
2019-03-18T20:46:38.423Z,22.29
2019-03-18T20:51:42.506Z,22.24
2019-03-18T20:56:46.596Z,22.26
2019-03-18T21:01:50.916Z,22.13
2019-03-18T21:06:55.172Z,22.14
2019-03-18T21:11:59.240Z,22.14
2019-03-18T21:17:03.570Z,22.10
2019-03-18T21:22:07.679Z,22.08
2019-03-18T21:27:11.785Z,22.06
2019-03-18T21:32:15.864Z,22.03
2019-03-18T21:37:20.214Z,22.04
2019-03-18T21:42:24.376Z,22.05
2019-03-18T21:47:28.650Z,22.05
2019-03-18T21:52:32.900Z,22.01
2019-03-18T21:57:37.185Z,22.01
2019-03-18T22:02:41.419Z,22.02
2019-03-18T22:07:45.660Z,21.98
2019-03-18T22:12:49.903Z,21.96
2019-03-18T22:17:54.035Z,21.87
2019-03-18T22:22:58.506Z,21.87
2019-03-18T22:28:02.693Z,21.93
2019-03-18T22:33:06.949Z,21.93
2019-03-18T22:38:11.098Z,21.93
2019-03-18T22:43:15.289Z,21.93
2019-03-18T22:48:19.591Z,22.02
2019-03-18T22:53:24.145Z,22.02
2019-03-18T22:58:28.373Z,21.98
2019-03-18T23:03:32.462Z,21.98
2019-03-18T23:08:36.507Z,21.97
2019-03-18T23:13:40.648Z,21.97
2019-03-18T23:18:44.869Z,21.99
2019-03-18T23:23:49.160Z,21.99
2019-03-18T23:28:53.362Z,22.01
2019-03-18T23:33:57.577Z,22.01
2019-03-18T23:39:01.724Z,22.01
2019-03-18T23:44:07.228Z,22.00
2019-03-18T23:49:11.454Z,21.99
2019-03-18T23:54:15.596Z,22.01
2019-03-18T23:59:19.702Z,22.00
